Nearby METAR Reports

 

KDVT - Phoenix/Deer Vly, Arizona, USA
Distance from station: SW 14mi, 22km
Updated: 2020-05-27 04:53
NOT Current
Clear
Clear
 Wind from E
Wind: E 9 mph , 15 km/h
Temperature: 75°F , 24°C
Dew Point: 30°F , -1°C
Humidity: 19%
Barometer: 29.84 inHg , 1010.5 hPa
Clouds: Clear
Visibility: 10 miles , 16 km
2020/05/27 11:53 KDVT 271153Z AUTO 08008KT 10SM CLR 24/M01 A2984 RMK AO2 SLP077 T02391006 10278 20206 51003
KSDL - Scottsdale, Arizona, USA
Distance from station: S 15mi, 23km
Updated: 2020-05-27 04:53
NOT Current
Clear
Clear
 Wind from SSW
Wind: SSW 3 mph , 6 km/h
Temperature: 73°F , 23°C
Dew Point: 37°F , 3°C
Humidity: 27%
Barometer: 29.85 inHg , 1010.8 hPa
Clouds: Clear
Visibility: 10 miles , 16 km
2020/05/27 11:53 KSDL 271153Z AUTO 21003KT 10SM CLR 23/03 A2985 RMK AO2 SLP078 T02330033 10294 20233 53004
KFFZ - Mesa/Falcon Fld, Arizona, USA
Distance from station: SSE 27mi, 44km
Updated: 2020-05-27 04:54
NOT Current
Clear
Clear
 Wind from NNE
Wind: NNE 3 mph , 6 km/h
Temperature: 75°F , 24°C
Dew Point: 28°F , -2°C
Humidity: 18%
Barometer: 29.84 inHg , 1010.5 hPa
Clouds: Clear
Visibility: 10 miles , 16 km
2020/05/27 11:54 KFFZ 271154Z AUTO 03003KT 10SM CLR 24/M02 A2984 RMK AO2 SLP077 T02441022 10289 20233 53003
 
KPHX - Phoenix/Sky Hrbr, Arizona, USA
Distance from station: SSW 28mi, 45km
Updated: 2020-05-27 04:51
NOT Current
Few Clouds
Few Clouds
 Wind from E
Wind: E 6 mph , 9 km/h
Temperature: 75°F , 24°C
Dew Point: 34°F , 1°C
Humidity: 22%
Barometer: 29.80 inHg , 1009.1 hPa
Clouds: Few Clouds
Visibility: 10 miles , 16 km
Cloud details: Few Clouds 12000 ft
2020/05/27 11:51 KPHX 271151Z 09005KT 10SM FEW120 24/01 A2980 RMK AO2 SLP072 T02440011 10311 20244 53003
KLUF - Luke Afb/Glendal, Arizona, USA
Distance from station: SW 34mi, 55km
Updated: 2020-05-27 05:18
NOT Current
Haze, Clear
Haze, Clear
 Wind from N
Wind: N 5 mph , 7 km/h
Temperature: 70°F , 21°C
Dew Point: 36°F , 2°C
Humidity: 29%
Barometer: 29.81 inHg , 1009.5 hPa
Summary: Haze
Clouds: Clear
Visibility: 4 miles , 6 km
2020/05/27 12:18 KLUF 271218Z AUTO 35004KT 4SM HZ CLR 21/02 A2981 RMK AO2 SLP081 $
KGYR - Goodyear Municip, Arizona, USA
Distance from station: SW 39mi, 63km
Updated: 2020-05-27 05:47
Few Clouds
Few Clouds
 Wind from calm
Wind: Calm
Temperature: 73°F , 23°C
Dew Point: 34°F , 1°C
Humidity: 23%
Barometer: 29.83 inHg , 1010.2 hPa
Clouds: Few Clouds
Visibility: 10 miles , 16 km
Cloud details: Few Clouds 15000 ft
Few Clouds 25000 ft
2020/05/27 12:47 KGYR 271247Z 00000KT 10SM FEW150 FEW250 23/01 A2983 RMK FIRST
 
KIWA - Chandler/Mesa, Arizona, USA
Distance from station: SSE 39mi, 63km
Updated: 2020-05-27 04:50
NOT Current
Partly cloudy
Partly cloudy
 Wind from ESE
Wind: ESE 8 mph , 13 km/h
Temperature: 72°F , 22°C
Dew Point: 23°F , -5°C
Humidity: 16%
Barometer: 29.85 inHg , 1010.8 hPa
Clouds: Partly cloudy
Visibility: 10 miles , 16 km
Cloud details: Partly cloudy 20000 ft
2020/05/27 11:50 KIWA 271150Z 11007KT 10SM SCT200 22/M05 A2985
KPAN - Payson, Arizona, USA
Distance from station: NE 44mi, 70km
Updated: 2020-05-27 05:35
Clear
Clear
 Wind from calm
Wind: Calm
Temperature: 59°F , 15°C
Dew Point: 21°F , -6°C
Humidity: 23%
Barometer: 30.12 inHg , 1020 hPa
Clouds: Clear
Visibility: 10 miles , 16 km
2020/05/27 12:35 KPAN 271235Z AUTO 00000KT 10SM CLR 15/M06 A3012 RMK AO2
KBXK - Buckeye, Arizona, USA
Distance from station: WSW 53mi, 86km
Updated: 2020-05-27 05:35
Clear
Clear
 Wind from N
Wind: N 6 mph , 9 km/h
Temperature: 66°F , 19°C
Dew Point: 25°F , -4°C
Humidity: 21%
Barometer: 29.84 inHg , 1010.5 hPa
Clouds: Clear
Visibility: 10 miles , 16 km
2020/05/27 12:35 KBXK 271235Z AUTO 35005KT 10SM CLR 19/M04 A2984 RMK A01
 
KA39 - Maricopa Ak-Chin, Arizona, USA
Distance from station: S 58mi, 94km
Updated: 2020-05-27 05:35
Clear
Clear
 Wind from ESE
Wind: ESE 10 mph , 17 km/h
Temperature: 68°F , 20°C
Dew Point: 27°F , -3°C
Humidity: 21%
Barometer: 29.89 inHg , 1012.2 hPa
Clouds: Clear
Visibility: 10 miles , 16 km
2020/05/27 12:35 KA39 271235Z AUTO 12009KT 10SM CLR 20/M03 A2989 RMK AO2
KPRC - Prescott, Arizona, USA
Distance from station: NNW 64mi, 103km
Updated: 2020-05-27 04:53
NOT Current
Clear
Clear
 Wind from S
Wind: S 5 mph , 7 km/h
Temperature: 57°F , 14°C
Dew Point: 27°F , -3°C
Humidity: 31%
Barometer: 30.10 inHg , 1019.3 hPa
Clouds: Clear
Visibility: 10 miles , 16 km
2020/05/27 11:53 KPRC 271153Z AUTO 18004KT 10SM CLR 14/M03 A3010 RMK AO2 SLP110 T01441033 10217 20139 55002
KSEZ - Sedona, Arizona, USA
Distance from station: N 71mi, 114km
Updated: 2020-05-27 05:35
Clear
Clear
 Wind from NNE
Wind: NNE 12 mph , 19 km/h
Temperature: 64°F , 18°C
Dew Point: 27°F , -3°C
Humidity: 24%
Barometer: 30.09 inHg , 1019 hPa
Clouds: Clear
Visibility: 10 miles , 16 km
2020/05/27 12:35 KSEZ 271235Z AUTO 02010KT 10SM CLR 18/M03 A3009 RMK AO2
 
KFLG - Flagstaff, Arizona, USA
Distance from station: N 91mi, 147km
Updated: 2020-05-27 04:57
NOT Current
Clear
Clear
 Wind from calm
Wind: Calm
Temperature: 39°F , 4°C
Dew Point: 25°F , -4°C
Humidity: 56%
Barometer: 30.22 inHg , 1023.4 hPa
Clouds: Clear
Visibility: 10 miles , 16 km
2020/05/27 11:57 KFLG 271157Z AUTO 00000KT 10SM CLR 04/M04 A3022 RMK AO2 SLP146 T00441039 10094 20044 55005